Time;durP1;ratioP1;P1;durP2;ratioP2;P2;SDS_P1;SDS_P2;PMS_P1;PMS_P2;Temp;Humidity;BMP_temperature;BMP_pressure;BME280_temperature;BME280_humidity;BME280_pressure;Samples;Min_cycle;Max_cycle;Signal;HPM_P1;HPM_P2
2023/03/29 02:01:57;;;;;;;19.10;4.15;;;;;;;;;;4455569;28;20071;-68
2023/03/29 02:04:29;;;;;;;7.10;2.87;;;;;;;;;;4266267;33;20084;-67
2023/03/29 02:06:56;;;;;;;9.30;3.92;;;;;;;;;;4234583;33;20117;-67
2023/03/29 02:09:22;;;;;;;13.73;3.20;;;;;;;;;;4220210;33;20031;-67
2023/03/29 02:11:50;;;;;;;14.90;4.03;;;;;;;;;;4206672;34;20063;-67
2023/03/29 02:14:16;;;;;;;8.13;3.05;;;;;;;;;;4221554;33;20069;-67
2023/03/29 02:16:45;;;;;;;12.15;3.90;;;;;;;;;;4220580;33;20480;-67
2023/03/29 02:19:12;;;;;;;7.03;3.47;;;;;;;;;;4220390;33;20051;-67
2023/03/29 02:21:40;;;;;;;6.90;3.47;;;;;;;;;;4220686;34;20078;-68
2023/03/29 02:24:12;;;;;;;9.32;3.08;;;;;;;;;;4221046;33;20089;-67
2023/03/29 02:26:38;;;;;;;8.60;3.40;;;;;;;;;;4220427;33;20042;-67
2023/03/29 02:29:05;;;;;;;13.40;3.35;;;;;;;;;;4220160;33;20046;-68
2023/03/29 02:31:34;;;;;;;10.50;3.30;;;;;;;;;;4219926;33;20072;-70
2023/03/29 02:34:14;;;;;;;8.77;3.50;;;;;;;;;;4204263;34;20044;-69
2023/03/29 02:36:42;;;;;;;7.07;3.60;;;;;;;;;;4206293;34;20621;-69
2023/03/29 02:39:12;;;;;;;14.50;3.90;;;;;;;;;;4249149;33;20058;-69
2023/03/29 02:41:40;;;;;;;14.75;3.45;;;;;;;;;;4247097;33;20456;-71
2023/03/29 02:44:10;;;;;;;8.20;2.85;;;;;;;;;;4234676;33;20171;-69
2023/03/29 02:46:37;;;;;;;16.65;4.18;;;;;;;;;;4234143;33;20058;-70
2023/03/29 02:49:04;;;;;;;9.23;3.20;;;;;;;;;;4235354;33;20487;-69
2023/03/29 02:51:31;;;;;;;11.98;4.05;;;;;;;;;;4234717;33;20064;-71
2023/03/29 02:54:03;;;;;;;7.07;3.50;;;;;;;;;;4233430;33;20089;-69
2023/03/29 02:56:30;;;;;;;11.65;4.55;;;;;;;;;;4234193;33;20386;-69
2023/03/29 02:58:56;;;;;;;13.32;3.53;;;;;;;;;;4234222;33;20059;-69
2023/03/29 03:01:23;;;;;;;13.80;3.90;;;;;;;;;;4233871;33;20521;-69
2023/03/29 03:03:50;;;;;;;9.93;3.85;;;;;;;;;;4204739;34;20082;-72
2023/03/29 03:08:49;;;;;;;15.82;4.28;;;;;;;;;;4192477;34;20047;-69
2023/03/29 03:11:15;;;;;;;9.32;3.35;;;;;;;;;;4206119;34;20089;-69
2023/03/29 03:13:42;;;;;;;10.70;4.25;;;;;;;;;;4206412;34;20047;-68
2023/03/29 03:16:08;;;;;;;14.50;4.00;;;;;;;;;;4223317;33;20078;-70
2023/03/29 03:18:35;;;;;;;17.65;4.10;;;;;;;;;;4227876;33;20059;-69
2023/03/29 03:21:01;;;;;;;9.68;3.83;;;;;;;;;;4219858;34;20068;-68
2023/03/29 03:23:28;;;;;;;13.02;3.70;;;;;;;;;;4221414;33;20102;-68
2023/03/29 03:25:54;;;;;;;13.18;4.05;;;;;;;;;;4222526;34;20034;-68
2023/03/29 03:28:21;;;;;;;14.73;4.45;;;;;;;;;;4210220;33;20110;-68
2023/03/29 03:30:48;;;;;;;14.10;4.72;;;;;;;;;;4228000;33;20228;-67
2023/03/29 03:33:19;;;;;;;12.98;4.30;;;;;;;;;;4208512;34;20081;-68
2023/03/29 03:35:47;;;;;;;16.60;5.35;;;;;;;;;;4195028;34;20374;-67
2023/03/29 03:38:14;;;;;;;9.60;4.62;;;;;;;;;;4195515;34;20168;-70
2023/03/29 03:40:40;;;;;;;14.25;4.47;;;;;;;;;;4209393;33;20050;-68
2023/03/29 03:43:06;;;;;;;17.33;5.32;;;;;;;;;;4251572;33;20035;-67
2023/03/29 03:45:33;;;;;;;16.15;6.10;;;;;;;;;;4264611;33;20075;-68
2023/03/29 03:48:00;;;;;;;15.13;5.43;;;;;;;;;;4264896;33;20065;-67
2023/03/29 03:50:28;;;;;;;27.70;6.68;;;;;;;;;;4265329;33;20462;-70
2023/03/29 03:52:54;;;;;;;17.92;5.70;;;;;;;;;;4263803;33;20071;-67
2023/03/29 03:55:21;;;;;;;21.00;6.53;;;;;;;;;;4265253;33;20034;-68
2023/03/29 03:57:48;;;;;;;16.33;6.10;;;;;;;;;;4264224;33;20171;-68
2023/03/29 04:00:21;;;;;;;15.95;6.32;;;;;;;;;;4265067;33;20050;-67
2023/03/29 04:02:50;;;;;;;13.05;4.85;;;;;;;;;;4248530;33;20026;-68
2023/03/29 04:05:16;;;;;;;18.73;6.00;;;;;;;;;;4250959;33;20870;-67
2023/03/29 04:07:43;;;;;;;53.90;17.05;;;;;;;;;;4251354;33;20064;-67
2023/03/29 04:10:10;;;;;;;28.20;7.55;;;;;;;;;;4250818;33;20056;-67
2023/03/29 04:12:37;;;;;;;15.25;6.80;;;;;;;;;;4220801;34;20985;-68
2023/03/29 04:15:05;;;;;;;20.52;7.70;;;;;;;;;;4233280;33;20054;-67
2023/03/29 04:17:32;;;;;;;15.43;6.78;;;;;;;;;;4224853;33;20055;-67
2023/03/29 04:20:00;;;;;;;24.80;8.95;;;;;;;;;;4208293;34;20083;-68
2023/03/29 04:22:26;;;;;;;21.95;7.00;;;;;;;;;;4221666;34;20067;-68
2023/03/29 04:24:53;;;;;;;18.75;8.15;;;;;;;;;;4219909;34;20445;-68
2023/03/29 04:27:21;;;;;;;27.65;10.05;;;;;;;;;;4221906;34;20379;-68
2023/03/29 04:29:54;;;;;;;22.05;8.23;;;;;;;;;;4222787;34;20058;-68
2023/03/29 04:32:23;;;;;;;20.50;7.62;;;;;;;;;;4224172;33;20540;-71
2023/03/29 04:34:51;;;;;;;17.83;7.47;;;;;;;;;;4220564;33;20429;-68
2023/03/29 04:37:20;;;;;;;22.10;8.80;;;;;;;;;;4222042;34;20104;-67
2023/03/29 04:39:48;;;;;;;23.42;8.35;;;;;;;;;;4207688;34;20055;-68
2023/03/29 04:42:15;;;;;;;31.52;9.13;;;;;;;;;;4179875;34;20059;-68
2023/03/29 04:44:42;;;;;;;25.40;9.45;;;;;;;;;;4192042;34;20043;-68
2023/03/29 04:47:12;;;;;;;23.15;9.52;;;;;;;;;;4181148;34;20139;-67
2023/03/29 04:49:40;;;;;;;26.33;10.48;;;;;;;;;;4180974;34;20079;-68
2023/03/29 04:52:07;;;;;;;27.33;10.25;;;;;;;;;;4206195;34;20047;-67
2023/03/29 04:54:36;;;;;;;38.35;10.10;;;;;;;;;;4207711;34;20470;-67
2023/03/29 04:57:06;;;;;;;27.98;11.00;;;;;;;;;;4207959;34;20047;-67
2023/03/29 04:59:32;;;;;;;30.90;10.85;;;;;;;;;;4209577;34;20043;-67
2023/03/29 05:02:01;;;;;;;29.58;9.73;;;;;;;;;;4193562;34;20047;-67
2023/03/29 05:04:28;;;;;;;37.42;10.80;;;;;;;;;;4194282;34;20073;-67
2023/03/29 05:06:56;;;;;;;26.10;10.15;;;;;;;;;;4192393;34;20043;-71
2023/03/29 05:09:22;;;;;;;30.30;9.18;;;;;;;;;;4177197;34;20221;-68
2023/03/29 05:11:49;;;;;;;30.70;9.48;;;;;;;;;;4172554;34;20063;-68
2023/03/29 05:14:16;;;;;;;33.85;9.90;;;;;;;;;;4191284;34;20388;-68
2023/03/29 05:16:43;;;;;;;23.38;9.40;;;;;;;;;;4194229;34;20518;-71
2023/03/29 05:19:10;;;;;;;24.65;8.75;;;;;;;;;;4181107;34;20091;-67
2023/03/29 05:21:37;;;;;;;21.95;8.60;;;;;;;;;;4207383;34;20567;-68
2023/03/29 05:24:05;;;;;;;22.45;8.23;;;;;;;;;;4214839;34;20064;-68
2023/03/29 05:26:36;;;;;;;16.20;6.97;;;;;;;;;;4221698;34;20043;-67
2023/03/29 05:29:03;;;;;;;25.40;7.95;;;;;;;;;;4219424;34;20098;-70
2023/03/29 05:31:31;;;;;;;25.35;7.32;;;;;;;;;;4206501;34;20068;-68
2023/03/29 05:33:57;;;;;;;17.60;7.87;;;;;;;;;;4220177;33;20827;-68
2023/03/29 05:36:24;;;;;;;16.02;6.68;;;;;;;;;;4222139;33;20072;-67
2023/03/29 05:38:51;;;;;;;20.08;7.22;;;;;;;;;;4216888;33;20069;-69
2023/03/29 05:41:17;;;;;;;25.50;8.07;;;;;;;;;;4219095;34;20369;-67
2023/03/29 05:43:46;;;;;;;26.67;7.80;;;;;;;;;;4225916;33;20091;-67
2023/03/29 05:46:13;;;;;;;30.60;8.75;;;;;;;;;;4234925;33;20030;-67
2023/03/29 05:48:40;;;;;;;26.50;10.90;;;;;;;;;;4234738;33;20772;-68
2023/03/29 05:51:07;;;;;;;43.08;14.23;;;;;;;;;;4236496;33;20050;-67
2023/03/29 05:53:34;;;;;;;22.70;7.35;;;;;;;;;;4233618;33;20060;-68
2023/03/29 05:56:01;;;;;;;25.20;8.48;;;;;;;;;;4235914;33;20057;-68
2023/03/29 05:58:27;;;;;;;29.27;8.13;;;;;;;;;;4235025;33;20180;-67
2023/03/29 06:00:54;;;;;;;23.52;9.52;;;;;;;;;;4211182;34;20046;-67
2023/03/29 06:03:24;;;;;;;28.60;8.07;;;;;;;;;;4233855;33;20121;-68
2023/03/29 06:05:57;;;;;;;53.85;22.33;;;;;;;;;;4221733;34;20977;-67
2023/03/29 06:08:25;;;;;;;49.85;17.62;;;;;;;;;;4220982;33;20462;-68
2023/03/29 06:10:59;;;;;;;62.58;17.45;;;;;;;;;;4235269;33;20054;-68
2023/03/29 06:13:26;;;;;;;20.27;7.28;;;;;;;;;;4231747;33;20097;-68
2023/03/29 06:15:53;;;;;;;29.35;8.38;;;;;;;;;;4234895;33;20247;-68
2023/03/29 06:18:19;;;;;;;23.50;8.25;;;;;;;;;;4235664;33;20031;-68
2023/03/29 06:20:47;;;;;;;39.88;10.30;;;;;;;;;;4236304;33;20054;-68
2023/03/29 06:23:13;;;;;;;58.75;16.15;;;;;;;;;;4234362;33;20049;-70
2023/03/29 06:25:39;;;;;;;102.93;21.08;;;;;;;;;;4193505;34;20413;-68
2023/03/29 06:28:06;;;;;;;99.15;22.33;;;;;;;;;;4207227;34;20409;-68
2023/03/29 06:30:33;;;;;;;37.55;10.90;;;;;;;;;;4206174;34;20059;-68
2023/03/29 06:32:59;;;;;;;33.50;12.50;;;;;;;;;;4207753;34;20179;-68
2023/03/29 06:35:26;;;;;;;15.23;6.78;;;;;;;;;;4203407;34;20051;-70
2023/03/29 06:37:53;;;;;;;21.40;5.85;;;;;;;;;;4217649;34;20447;-69
2023/03/29 06:40:23;;;;;;;15.07;6.35;;;;;;;;;;4221547;34;20561;-67
2023/03/29 06:42:56;;;;;;;18.12;5.87;;;;;;;;;;4219152;34;20088;-67
2023/03/29 06:45:25;;;;;;;13.73;6.12;;;;;;;;;;4219763;33;20411;-70
2023/03/29 06:47:52;;;;;;;21.50;7.30;;;;;;;;;;4219949;33;20096;-68
2023/03/29 06:50:22;;;;;;;24.12;9.40;;;;;;;;;;4212049;34;20117;-67
2023/03/29 06:52:50;;;;;;;29.95;6.93;;;;;;;;;;4193639;34;20051;-68
2023/03/29 06:55:17;;;;;;;17.80;7.82;;;;;;;;;;4190923;34;20073;-68
2023/03/29 06:57:43;;;;;;;12.35;4.90;;;;;;;;;;4202208;34;20110;-69
2023/03/29 07:00:14;;;;;;;17.10;6.80;;;;;;;;;;4209428;34;20063;-68
2023/03/29 07:02:46;;;;;;;9.85;4.53;;;;;;;;;;4181475;34;20106;-68
2023/03/29 07:05:13;;;;;;;33.55;8.65;;;;;;;;;;4167980;34;20068;-68
2023/03/29 07:07:53;;;;;;;24.10;6.87;;;;;;;;;;4166563;34;20456;-68
2023/03/29 07:10:24;;;;;;;14.80;4.75;;;;;;;;;;4181096;34;20809;-67
2023/03/29 07:12:53;;;;;;;22.70;7.18;;;;;;;;;;4172888;34;20039;-68
2023/03/29 07:15:20;;;;;;;14.75;6.22;;;;;;;;;;4168812;34;20059;-70
2023/03/29 07:17:49;;;;;;;9.98;4.30;;;;;;;;;;4160269;34;20091;-68
2023/03/29 07:20:15;;;;;;;10.35;4.10;;;;;;;;;;4154618;34;20535;-69
2023/03/29 07:22:43;;;;;;;11.57;4.55;;;;;;;;;;4157739;34;20074;-68
2023/03/29 07:25:11;;;;;;;7.28;3.62;;;;;;;;;;4192712;34;20069;-71
2023/03/29 07:27:38;;;;;;;9.82;3.65;;;;;;;;;;4196361;34;20095;-68
2023/03/29 07:30:09;;;;;;;8.32;3.45;;;;;;;;;;4203769;34;20460;-67
2023/03/29 07:32:37;;;;;;;9.43;3.37;;;;;;;;;;4198589;34;20472;-69
2023/03/29 07:35:05;;;;;;;44.97;12.77;;;;;;;;;;4207062;34;20062;-70
2023/03/29 07:37:33;;;;;;;16.60;6.78;;;;;;;;;;4209622;34;20763;-68
2023/03/29 07:40:02;;;;;;;16.17;6.20;;;;;;;;;;4208751;34;20854;-67
2023/03/29 07:42:29;;;;;;;14.85;4.40;;;;;;;;;;4210298;34;20570;-67
2023/03/29 07:44:55;;;;;;;4.82;2.80;;;;;;;;;;4207817;34;20460;-68
2023/03/29 07:47:29;;;;;;;5.70;3.03;;;;;;;;;;4208087;34;20076;-67
2023/03/29 07:49:55;;;;;;;8.75;3.33;;;;;;;;;;4234435;33;20058;-68
2023/03/29 07:52:22;;;;;;;4.57;2.90;;;;;;;;;;4237630;33;20030;-67
2023/03/29 07:54:48;;;;;;;10.15;2.80;;;;;;;;;;4234496;33;20058;-70
2023/03/29 07:57:15;;;;;;;9.73;3.92;;;;;;;;;;4232918;33;20562;-69
2023/03/29 07:59:42;;;;;;;9.93;4.47;;;;;;;;;;4234253;33;20076;-68
2023/03/29 08:02:10;;;;;;;9.30;2.50;;;;;;;;;;4204791;34;20058;-68
2023/03/29 08:04:38;;;;;;;9.02;3.50;;;;;;;;;;4205113;34;20114;-68
2023/03/29 08:07:08;;;;;;;13.77;3.45;;;;;;;;;;4204766;34;20047;-68
2023/03/29 08:09:36;;;;;;;7.90;3.80;;;;;;;;;;4205111;34;20065;-68
2023/03/29 08:12:03;;;;;;;10.85;3.65;;;;;;;;;;4194878;34;20471;-68
2023/03/29 08:14:31;;;;;;;8.60;3.60;;;;;;;;;;4229105;33;20050;-68
2023/03/29 08:16:57;;;;;;;22.08;6.37;;;;;;;;;;4218649;34;20046;-68
2023/03/29 08:19:25;;;;;;;19.23;4.15;;;;;;;;;;4223691;34;20062;-67
2023/03/29 08:21:52;;;;;;;12.40;4.68;;;;;;;;;;4222000;34;20031;-68
2023/03/29 08:24:20;;;;;;;7.15;2.72;;;;;;;;;;4222404;34;20469;-67
2023/03/29 08:26:48;;;;;;;4.93;2.42;;;;;;;;;;4220616;34;20447;-70
2023/03/29 08:29:15;;;;;;;5.87;2.40;;;;;;;;;;4194327;34;20048;-67
2023/03/29 08:31:42;;;;;;;5.87;2.83;;;;;;;;;;4195163;34;20565;-67
2023/03/29 08:34:09;;;;;;;6.90;2.90;;;;;;;;;;4206361;34;20077;-68
2023/03/29 08:36:37;;;;;;;9.55;3.53;;;;;;;;;;4207977;34;20047;-67
2023/03/29 08:39:04;;;;;;;5.43;2.62;;;;;;;;;;4206131;34;20110;-69
2023/03/29 08:41:37;;;;;;;6.45;2.67;;;;;;;;;;4208528;34;20056;-68
2023/03/29 08:44:10;;;;;;;9.30;4.18;;;;;;;;;;4207713;34;20050;-68
2023/03/29 08:46:38;;;;;;;6.12;2.28;;;;;;;;;;4181220;34;20183;-68
2023/03/29 08:49:06;;;;;;;3.00;1.80;;;;;;;;;;4191351;34;20136;-68
2023/03/29 08:51:36;;;;;;;4.22;1.95;;;;;;;;;;4194317;34;20043;-69
2023/03/29 08:54:06;;;;;;;4.93;2.17;;;;;;;;;;4194665;34;20101;-69
2023/03/29 08:56:34;;;;;;;5.90;2.20;;;;;;;;;;4185390;34;20040;-71
2023/03/29 08:59:05;;;;;;;19.27;2.50;;;;;;;;;;4181726;34;20083;-68
2023/03/29 09:01:34;;;;;;;5.55;2.00;;;;;;;;;;4193065;34;20154;-69
2023/03/29 09:04:13;;;;;;;3.30;1.80;;;;;;;;;;4180035;34;20060;-69
2023/03/29 09:06:41;;;;;;;4.10;2.10;;;;;;;;;;4194385;34;20059;-70
2023/03/29 09:09:14;;;;;;;14.63;4.35;;;;;;;;;;4194399;34;20498;-72
2023/03/29 09:11:50;;;;;;;5.15;2.83;;;;;;;;;;4175291;34;20394;-69
2023/03/29 09:14:34;;;;;;;6.25;2.67;;;;;;;;;;4176762;34;20066;-69
2023/03/29 09:17:13;;;;;;;5.87;2.50;;;;;;;;;;4156746;34;20488;-68
2023/03/29 09:19:47;;;;;;;31.30;9.57;;;;;;;;;;4138324;34;20074;-68
2023/03/29 09:22:32;;;;;;;9.38;2.90;;;;;;;;;;4138917;34;20093;-69
2023/03/29 09:25:04;;;;;;;7.47;3.65;;;;;;;;;;4161647;34;20537;-68
2023/03/29 09:27:46;;;;;;;4.40;2.85;;;;;;;;;;4164810;34;20069;-68
2023/03/29 09:30:17;;;;;;;7.45;2.97;;;;;;;;;;4173452;34;20035;-69
2023/03/29 09:32:47;;;;;;;4.40;2.65;;;;;;;;;;4181292;34;20070;-69
2023/03/29 09:35:33;;;;;;;7.62;3.45;;;;;;;;;;4178664;34;20100;-69
2023/03/29 09:38:01;;;;;;;13.62;3.50;;;;;;;;;;4180156;34;20074;-70
2023/03/29 09:40:33;;;;;;;1.98;1.62;;;;;;;;;;4179335;34;20063;-68
2023/03/29 09:43:01;;;;;;;2.47;2.17;;;;;;;;;;4174551;34;20061;-68
2023/03/29 09:45:37;;;;;;;3.62;3.05;;;;;;;;;;4188183;34;20426;-68
2023/03/29 09:48:14;;;;;;;2.03;1.60;;;;;;;;;;4193056;34;20573;-69
2023/03/29 09:50:42;;;;;;;2.97;1.65;;;;;;;;;;4211451;33;20845;-68
2023/03/29 09:53:09;;;;;;;3.97;2.22;;;;;;;;;;4245525;33;20057;-68
2023/03/29 09:55:38;;;;;;;3.72;1.62;;;;;;;;;;4253397;33;20034;-68
2023/03/29 09:58:14;;;;;;;4.62;2.17;;;;;;;;;;4263285;33;20456;-69
2023/03/29 10:00:41;;;;;;;10.93;3.30;;;;;;;;;;4232947;33;20026;-69
2023/03/29 10:03:08;;;;;;;3.87;2.80;;;;;;;;;;4235262;33;20068;-69
2023/03/29 10:05:38;;;;;;;3.80;1.92;;;;;;;;;;4236197;33;20050;-69
2023/03/29 10:08:19;;;;;;;6.10;3.10;;;;;;;;;;4235392;33;20059;-72
2023/03/29 10:10:45;;;;;;;7.60;2.35;;;;;;;;;;4235336;33;20682;-69
2023/03/29 10:13:19;;;;;;;3.33;1.90;;;;;;;;;;4235347;33;20411;-69
2023/03/29 10:15:56;;;;;;;3.28;2.03;;;;;;;;;;4236034;33;20038;-69
2023/03/29 10:18:23;;;;;;;3.22;1.75;;;;;;;;;;4235070;33;20663;-68
2023/03/29 10:20:49;;;;;;;4.85;2.30;;;;;;;;;;4235293;33;20133;-69
2023/03/29 10:23:17;;;;;;;3.50;2.60;;;;;;;;;;4235092;33;20054;-68
2023/03/29 10:25:43;;;;;;;3.10;1.48;;;;;;;;;;4236564;33;20060;-69
2023/03/29 10:28:15;;;;;;;5.65;2.03;;;;;;;;;;4220874;34;20489;-69
2023/03/29 10:30:41;;;;;;;2.28;1.67;;;;;;;;;;4208984;34;20200;-68
2023/03/29 10:33:16;;;;;;;1.50;1.40;;;;;;;;;;4222410;33;20051;-69
2023/03/29 10:35:42;;;;;;;6.40;3.45;;;;;;;;;;4215339;34;20057;-69
2023/03/29 10:38:12;;;;;;;6.62;3.05;;;;;;;;;;4209242;34;20105;-67
2023/03/29 10:40:43;;;;;;;4.25;2.75;;;;;;;;;;4207590;34;20356;-68
2023/03/29 10:43:19;;;;;;;8.18;4.30;;;;;;;;;;4221551;34;20436;-68
2023/03/29 10:45:55;;;;;;;4.20;2.22;;;;;;;;;;4206559;34;20061;-71
2023/03/29 10:48:29;;;;;;;4.05;2.87;;;;;;;;;;4208013;34;20810;-68
2023/03/29 10:50:59;;;;;;;1.92;1.73;;;;;;;;;;4207830;34;20061;-69
2023/03/29 10:53:33;;;;;;;7.93;2.17;;;;;;;;;;4205921;34;20063;-69
2023/03/29 10:56:08;;;;;;;4.03;2.20;;;;;;;;;;4205977;34;20506;-68
2023/03/29 10:58:38;;;;;;;1.95;1.48;;;;;;;;;;4202188;34;20057;-68
2023/03/29 11:01:04;;;;;;;4.32;1.92;;;;;;;;;;4356476;28;20069;-68
2023/03/29 11:03:51;;;;;;;5.00;1.90;;;;;;;;;;4205851;34;20084;-68
2023/03/29 11:06:31;;;;;;;2.92;2.05;;;;;;;;;;4192603;34;20027;-68
2023/03/29 11:09:00;;;;;;;5.50;2.22;;;;;;;;;;4177172;34;20035;-68
2023/03/29 11:11:35;;;;;;;2.90;2.12;;;;;;;;;;4176461;34;20110;-70
2023/03/29 11:14:12;;;;;;;7.22;1.90;;;;;;;;;;4153358;34;20121;-68
2023/03/29 11:16:57;;;;;;;5.32;1.73;;;;;;;;;;4155746;34;20064;-71
2023/03/29 11:19:23;;;;;;;2.50;1.50;;;;;;;;;;4153317;34;20134;-69
2023/03/29 11:22:08;;;;;;;38.75;12.80;;;;;;;;;;4144271;34;20055;-69
2023/03/29 11:24:34;;;;;;;31.10;9.75;;;;;;;;;;4141633;34;20719;-69
2023/03/29 11:27:03;;;;;;;4.30;2.45;;;;;;;;;;4144439;34;20056;-69
2023/03/29 11:29:32;;;;;;;4.43;2.33;;;;;;;;;;4176252;34;20065;-69
2023/03/29 11:32:17;;;;;;;4.87;2.80;;;;;;;;;;4179745;34;20048;-69
2023/03/29 11:34:51;;;;;;;5.68;2.35;;;;;;;;;;4178204;34;20319;-69
2023/03/29 11:37:18;;;;;;;3.17;2.40;;;;;;;;;;4192680;34;20158;-68
2023/03/29 11:39:55;;;;;;;4.32;2.87;;;;;;;;;;4205768;34;20096;-69
2023/03/29 11:42:24;;;;;;;2.22;2.00;;;;;;;;;;4205192;34;20074;-69
2023/03/29 11:44:52;;;;;;;10.00;1.83;;;;;;;;;;4219285;33;20043;-70
2023/03/29 11:47:24;;;;;;;3.05;1.87;;;;;;;;;;4250888;33;20091;-68
2023/03/29 11:49:56;;;;;;;1.55;1.45;;;;;;;;;;4236580;33;20132;-70
2023/03/29 11:52:29;;;;;;;8.23;2.05;;;;;;;;;;4238024;33;20047;-68
2023/03/29 11:54:56;;;;;;;3.28;2.20;;;;;;;;;;4236457;33;20463;-69
2023/03/29 11:57:30;;;;;;;4.47;2.12;;;;;;;;;;4237573;33;20453;-69
2023/03/29 11:59:57;;;;;;;9.13;2.55;;;;;;;;;;4243174;33;20038;-69
2023/03/29 12:02:35;;;;;;;4.40;2.50;;;;;;;;;;4250849;33;20076;-69
2023/03/29 12:05:09;;;;;;;1.85;1.50;;;;;;;;;;4250357;33;20056;-71
2023/03/29 12:07:39;;;;;;;1.73;1.42;;;;;;;;;;4248029;33;20553;-70
2023/03/29 12:10:15;;;;;;;1.87;1.55;;;;;;;;;;4248888;33;20437;-69
2023/03/29 12:12:41;;;;;;;6.18;1.70;;;;;;;;;;4234690;33;20043;-70
2023/03/29 12:15:11;;;;;;;7.87;1.60;;;;;;;;;;4238110;33;20041;-70
2023/03/29 12:17:39;;;;;;;2.17;1.58;;;;;;;;;;4231613;33;20051;-69
2023/03/29 12:20:12;;;;;;;4.12;2.67;;;;;;;;;;4234724;33;20831;-69
2023/03/29 12:22:39;;;;;;;6.25;2.20;;;;;;;;;;4236157;33;20038;-68
2023/03/29 12:25:06;;;;;;;6.97;1.87;;;;;;;;;;4230061;33;20059;-72
2023/03/29 12:27:41;;;;;;;6.15;1.98;;;;;;;;;;4227487;33;20055;-70
2023/03/29 12:30:27;;;;;;;1.75;1.65;;;;;;;;;;4221713;33;20476;-69
2023/03/29 12:32:53;;;;;;;4.12;2.45;;;;;;;;;;4223920;33;20042;-71
2023/03/29 12:35:25;;;;;;;;;;;;;;;;;;4242392;33;20043;-67
2023/03/29 12:37:54;;;;;;;5.75;2.33;;;;;;;;;;4237709;33;19953;-68
2023/03/29 12:40:26;;;;;;;3.30;1.87;;;;;;;;;;4234522;33;20420;-68
2023/03/29 12:42:56;;;;;;;4.75;1.67;;;;;;;;;;4237387;33;20089;-69
2023/03/29 12:45:44;;;;;;;7.00;3.03;;;;;;;;;;4241111;33;20068;-68
2023/03/29 12:48:18;;;;;;;11.30;5.22;;;;;;;;;;4245741;33;20075;-68
2023/03/29 12:50:51;;;;;;;10.98;4.97;;;;;;;;;;4219956;33;20092;-68
2023/03/29 12:53:25;;;;;;;5.35;3.08;;;;;;;;;;4219645;34;20129;-70
2023/03/29 12:55:55;;;;;;;4.55;1.98;;;;;;;;;;4219876;33;20076;-68
2023/03/29 12:58:24;;;;;;;3.75;2.53;;;;;;;;;;4217178;34;20468;-68
2023/03/29 13:01:16;;;;;;;2.45;2.22;;;;;;;;;;4217349;34;20063;-68
2023/03/29 13:03:43;;;;;;;2.92;1.70;;;;;;;;;;4202711;34;20052;-71
2023/03/29 13:06:09;;;;;;;3.65;3.33;;;;;;;;;;4214523;34;20674;-69
2023/03/29 13:08:37;;;;;;;3.83;2.00;;;;;;;;;;4207658;34;20184;-68
2023/03/29 13:11:04;;;;;;;2.75;1.73;;;;;;;;;;4206330;34;20066;-69
2023/03/29 13:13:35;;;;;;;11.12;1.77;;;;;;;;;;4206517;34;20055;-68
2023/03/29 13:16:15;;;;;;;2.30;2.15;;;;;;;;;;4203110;34;20116;-69
2023/03/29 13:18:49;;;;;;;4.03;2.28;;;;;;;;;;4176732;34;20055;-69
2023/03/29 13:21:45;;;;;;;11.60;2.72;;;;;;;;;;4160359;34;20106;-68
2023/03/29 13:24:25;;;;;;;4.22;1.60;;;;;;;;;;4139206;34;20403;-68
2023/03/29 13:27:17;;;;;;;5.15;2.20;;;;;;;;;;4108258;34;20103;-69
2023/03/29 13:29:46;;;;;;;;;;;;;;;;;;4092467;34;20155;-69
2023/03/29 13:32:31;;;;;;;7.20;1.58;;;;;;;;;;4086554;35;19963;-70
2023/03/29 13:34:57;;;;;;;3.15;1.40;;;;;;;;;;4084603;35;20919;-69
2023/03/29 13:37:42;;;;;;;3.25;1.27;;;;;;;;;;4082609;35;20065;-68
2023/03/29 13:40:43;;;;;;;1.60;1.40;;;;;;;;;;4084471;35;20054;-69
2023/03/29 13:43:19;;;;;;;3.08;1.62;;;;;;;;;;4079396;35;20197;-69
2023/03/29 13:45:57;;;;;;;6.30;1.55;;;;;;;;;;4110172;34;20049;-69
2023/03/29 13:48:24;;;;;;;2.92;2.60;;;;;;;;;;4097036;35;20183;-70
2023/03/29 13:50:51;;;;;;;10.90;1.40;;;;;;;;;;4099636;35;20812;-70
2023/03/29 13:53:23;;;;;;;2.10;1.58;;;;;;;;;;4112373;34;20087;-68
2023/03/29 13:55:51;;;;;;;4.55;2.35;;;;;;;;;;4134458;34;20107;-69
2023/03/29 13:58:28;;;;;;;4.70;2.58;;;;;;;;;;4166203;34;20048;-69
2023/03/29 14:01:23;;;;;;;3.35;1.50;;;;;;;;;;4179942;34;20046;-68
2023/03/29 14:03:50;;;;;;;7.25;2.55;;;;;;;;;;4179844;34;20047;-74
2023/03/29 14:06:22;;;;;;;4.03;2.03;;;;;;;;;;4178264;34;20220;-68
2023/03/29 14:08:50;;;;;;;2.22;1.85;;;;;;;;;;4181005;34;20069;-68
2023/03/29 14:11:21;;;;;;;11.43;2.20;;;;;;;;;;4165915;34;20056;-70
2023/03/29 14:13:50;;;;;;;1.85;1.30;;;;;;;;;;4167812;34;20420;-68
2023/03/29 14:16:17;;;;;;;5.32;1.70;;;;;;;;;;4184279;34;20445;-69
2023/03/29 14:18:45;;;;;;;3.10;1.52;;;;;;;;;;4234838;33;20055;-68
2023/03/29 14:21:12;;;;;;;4.43;1.70;;;;;;;;;;4235533;33;20077;-68
2023/03/29 14:23:42;;;;;;;3.92;2.08;;;;;;;;;;4235248;33;20433;-69
2023/03/29 14:26:13;;;;;;;6.47;1.85;;;;;;;;;;4232859;33;20075;-71
2023/03/29 14:28:46;;;;;;;6.22;2.62;;;;;;;;;;4236526;33;20080;-68
2023/03/29 14:31:19;;;;;;;3.62;2.30;;;;;;;;;;4235141;33;20474;-68
2023/03/29 14:33:50;;;;;;;5.50;3.35;;;;;;;;;;4222562;34;20068;-68
2023/03/29 14:36:16;;;;;;;10.85;2.50;;;;;;;;;;4207771;34;20509;-68
2023/03/29 14:38:46;;;;;;;6.40;1.90;;;;;;;;;;4222397;34;20048;-68
2023/03/29 14:41:13;;;;;;;2.55;1.95;;;;;;;;;;4220498;33;20059;-68
2023/03/29 14:43:40;;;;;;;3.40;1.70;;;;;;;;;;4221493;34;20072;-70
2023/03/29 14:46:06;;;;;;;4.87;2.60;;;;;;;;;;4220714;34;20530;-68
2023/03/29 14:48:33;;;;;;;1.83;1.65;;;;;;;;;;4221435;34;20059;-69
2023/03/29 14:50:59;;;;;;;5.30;2.22;;;;;;;;;;4221158;34;20047;-69
2023/03/29 14:53:27;;;;;;;5.25;1.65;;;;;;;;;;4222577;34;20050;-69
2023/03/29 14:55:54;;;;;;;4.37;1.92;;;;;;;;;;4220697;34;20077;-69
2023/03/29 14:58:22;;;;;;;4.55;2.37;;;;;;;;;;4221672;34;20051;-67
2023/03/29 15:00:49;;;;;;;5.00;2.17;;;;;;;;;;4221784;34;20078;-67
2023/03/29 15:03:16;;;;;;;2.55;1.75;;;;;;;;;;4220968;34;20042;-68
2023/03/29 15:05:46;;;;;;;10.60;2.55;;;;;;;;;;4232532;33;20073;-69
2023/03/29 15:08:13;;;;;;;13.98;6.22;;;;;;;;;;4193651;34;20085;-69
2023/03/29 15:10:41;;;;;;;3.47;2.10;;;;;;;;;;4207502;34;20242;-70
2023/03/29 15:13:12;;;;;;;5.32;2.53;;;;;;;;;;4207371;34;20121;-69
2023/03/29 15:15:38;;;;;;;7.40;2.72;;;;;;;;;;4207586;34;20414;-67
2023/03/29 15:18:06;;;;;;;4.37;2.33;;;;;;;;;;4205288;34;20551;-69
2023/03/29 15:20:41;;;;;;;2.30;1.80;;;;;;;;;;4209497;34;20486;-68
2023/03/29 15:23:19;;;;;;;8.02;2.55;;;;;;;;;;4211069;34;20043;-69
2023/03/29 15:25:47;;;;;;;10.05;2.70;;;;;;;;;;4209006;34;20489;-67
2023/03/29 15:28:27;;;;;;;7.60;3.70;;;;;;;;;;4195829;34;20059;-70
2023/03/29 15:30:57;;;;;;;5.35;2.53;;;;;;;;;;4195735;34;20060;-69
2023/03/29 15:33:30;;;;;;;6.43;3.47;;;;;;;;;;4209697;34;20386;-68
2023/03/29 15:35:56;;;;;;;6.05;3.10;;;;;;;;;;4211028;34;20035;-68
2023/03/29 15:38:23;;;;;;;6.45;3.00;;;;;;;;;;4197274;34;20051;-68
2023/03/29 15:40:49;;;;;;;4.45;2.92;;;;;;;;;;4209363;34;20039;-67
2023/03/29 15:43:15;;;;;;;5.82;2.30;;;;;;;;;;4210613;34;20149;-69
2023/03/29 15:45:41;;;;;;;4.47;2.30;;;;;;;;;;4209668;34;20209;-68
2023/03/29 15:48:10;;;;;;;4.55;2.10;;;;;;;;;;4209732;34;20107;-69
2023/03/29 15:50:36;;;;;;;6.50;2.80;;;;;;;;;;4208634;34;20238;-68
2023/03/29 15:53:03;;;;;;;6.90;3.08;;;;;;;;;;4210272;34;20108;-69
2023/03/29 15:55:30;;;;;;;9.93;3.35;;;;;;;;;;4210293;34;20047;-69
2023/03/29 15:57:56;;;;;;;6.80;3.12;;;;;;;;;;4222055;34;20102;-72
2023/03/29 16:00:23;;;;;;;5.30;2.97;;;;;;;;;;4221564;34;20043;-70
2023/03/29 16:02:50;;;;;;;6.60;3.35;;;;;;;;;;4222940;34;20051;-69
2023/03/29 16:05:16;;;;;;;5.90;3.12;;;;;;;;;;4224114;34;20031;-67
2023/03/29 16:07:42;;;;;;;10.10;3.20;;;;;;;;;;4209724;34;20063;-68
2023/03/29 16:10:09;;;;;;;9.88;4.05;;;;;;;;;;4229318;33;20508;-71
2023/03/29 16:12:37;;;;;;;19.65;4.80;;;;;;;;;;4235928;33;20209;-68
2023/03/29 16:15:10;;;;;;;11.10;3.83;;;;;;;;;;4246157;33;20054;-68
2023/03/29 16:17:37;;;;;;;4.87;3.37;;;;;;;;;;4236960;33;20354;-68
2023/03/29 16:20:04;;;;;;;3.97;3.42;;;;;;;;;;4236588;33;20134;-69
2023/03/29 16:22:31;;;;;;;7.60;3.37;;;;;;;;;;4236601;33;20050;-69
2023/03/29 16:24:57;;;;;;;8.25;2.72;;;;;;;;;;4237255;33;20067;-68
2023/03/29 16:27:23;;;;;;;4.82;2.70;;;;;;;;;;4236770;33;20046;-68
2023/03/29 16:29:49;;;;;;;7.65;2.60;;;;;;;;;;4224618;33;20127;-68
2023/03/29 16:32:16;;;;;;;13.25;3.22;;;;;;;;;;4223240;34;20030;-68
2023/03/29 16:34:42;;;;;;;7.50;3.55;;;;;;;;;;4220549;34;20404;-70
2023/03/29 16:37:15;;;;;;;8.70;2.92;;;;;;;;;;4223577;34;20204;-69
2023/03/29 16:39:41;;;;;;;8.75;3.00;;;;;;;;;;4235159;33;20074;-68
2023/03/29 16:42:09;;;;;;;10.93;4.72;;;;;;;;;;4237552;33;20054;-70
2023/03/29 16:44:35;;;;;;;11.02;3.60;;;;;;;;;;4234588;33;20046;-68
2023/03/29 16:47:01;;;;;;;6.80;3.37;;;;;;;;;;4236658;33;20455;-67
2023/03/29 16:49:27;;;;;;;8.50;3.17;;;;;;;;;;4251184;33;20204;-68
2023/03/29 16:51:53;;;;;;;3.78;3.10;;;;;;;;;;4251503;33;20462;-68
2023/03/29 16:54:20;;;;;;;5.72;2.70;;;;;;;;;;4249999;33;20061;-72
2023/03/29 16:56:46;;;;;;;4.07;3.10;;;;;;;;;;4262889;33;20046;-68